sensor_id;sensor_type;location;lat;lon;timestamp;P1;durP1;ratioP1;P2;durP2;ratioP2
15812;SDS011;8007;51.404;6.304;2023-02-03T00:01:21;19.03;;;11.47;;
15812;SDS011;8007;51.404;6.304;2023-02-03T00:03:25;23.93;;;11.93;;
15812;SDS011;8007;51.404;6.304;2023-02-03T00:05:30;19.33;;;11.63;;
15812;SDS011;8007;51.404;6.304;2023-02-03T00:07:32;28.23;;;12.50;;
15812;SDS011;8007;51.404;6.304;2023-02-03T00:09:35;19.03;;;12.63;;
15812;SDS011;8007;51.404;6.304;2023-02-03T00:11:39;25.27;;;12.27;;
15812;SDS011;8007;51.404;6.304;2023-02-03T00:13:41;21.47;;;12.30;;
15812;SDS011;8007;51.404;6.304;2023-02-03T00:15:43;25.53;;;12.97;;
15812;SDS011;8007;51.404;6.304;2023-02-03T00:17:46;21.97;;;13.63;;
15812;SDS011;8007;51.404;6.304;2023-02-03T00:19:48;22.53;;;12.87;;
15812;SDS011;8007;51.404;6.304;2023-02-03T00:21:50;25.40;;;13.03;;
15812;SDS011;8007;51.404;6.304;2023-02-03T00:23:53;27.10;;;13.60;;
15812;SDS011;8007;51.404;6.304;2023-02-03T00:25:55;27.13;;;13.00;;
15812;SDS011;8007;51.404;6.304;2023-02-03T00:27:58;26.77;;;13.03;;
15812;SDS011;8007;51.404;6.304;2023-02-03T00:30:01;27.33;;;14.33;;
15812;SDS011;8007;51.404;6.304;2023-02-03T00:32:03;26.00;;;13.93;;
15812;SDS011;8007;51.404;6.304;2023-02-03T00:34:06;21.90;;;12.83;;
15812;SDS011;8007;51.404;6.304;2023-02-03T00:36:08;25.90;;;13.33;;
15812;SDS011;8007;51.404;6.304;2023-02-03T00:38:11;22.23;;;12.93;;
15812;SDS011;8007;51.404;6.304;2023-02-03T00:40:19;23.20;;;12.67;;
15812;SDS011;8007;51.404;6.304;2023-02-03T00:42:21;22.93;;;12.53;;
15812;SDS011;8007;51.404;6.304;2023-02-03T00:44:24;22.17;;;12.13;;
15812;SDS011;8007;51.404;6.304;2023-02-03T00:46:27;25.87;;;13.17;;
15812;SDS011;8007;51.404;6.304;2023-02-03T00:48:29;29.03;;;12.07;;
15812;SDS011;8007;51.404;6.304;2023-02-03T00:50:31;22.13;;;11.90;;
15812;SDS011;8007;51.404;6.304;2023-02-03T00:52:34;23.53;;;12.90;;
15812;SDS011;8007;51.404;6.304;2023-02-03T00:54:36;33.37;;;13.93;;
15812;SDS011;8007;51.404;6.304;2023-02-03T00:56:38;23.33;;;12.30;;
15812;SDS011;8007;51.404;6.304;2023-02-03T00:58:41;24.13;;;12.47;;
15812;SDS011;8007;51.404;6.304;2023-02-03T01:00:44;22.63;;;11.97;;
15812;SDS011;8007;51.404;6.304;2023-02-03T01:02:48;18.63;;;12.27;;
15812;SDS011;8007;51.404;6.304;2023-02-03T01:04:51;21.17;;;11.00;;
15812;SDS011;8007;51.404;6.304;2023-02-03T01:06:53;19.70;;;11.43;;
15812;SDS011;8007;51.404;6.304;2023-02-03T01:08:57;19.73;;;10.53;;
15812;SDS011;8007;51.404;6.304;2023-02-03T01:11:04;22.63;;;11.30;;
15812;SDS011;8007;51.404;6.304;2023-02-03T01:13:06;15.03;;;10.63;;
15812;SDS011;8007;51.404;6.304;2023-02-03T01:15:09;18.20;;;10.50;;
15812;SDS011;8007;51.404;6.304;2023-02-03T01:17:14;17.73;;;10.20;;
15812;SDS011;8007;51.404;6.304;2023-02-03T01:19:16;22.23;;;10.97;;
15812;SDS011;8007;51.404;6.304;2023-02-03T01:21:19;18.63;;;9.73;;
15812;SDS011;8007;51.404;6.304;2023-02-03T01:23:23;18.10;;;10.03;;
15812;SDS011;8007;51.404;6.304;2023-02-03T01:25:25;22.47;;;10.23;;
15812;SDS011;8007;51.404;6.304;2023-02-03T01:27:27;21.83;;;10.53;;
15812;SDS011;8007;51.404;6.304;2023-02-03T01:29:29;16.73;;;9.60;;
15812;SDS011;8007;51.404;6.304;2023-02-03T01:31:33;16.00;;;9.40;;
15812;SDS011;8007;51.404;6.304;2023-02-03T01:33:37;20.43;;;9.57;;
15812;SDS011;8007;51.404;6.304;2023-02-03T01:35:40;18.93;;;9.83;;
15812;SDS011;8007;51.404;6.304;2023-02-03T01:37:42;15.87;;;8.90;;
15812;SDS011;8007;51.404;6.304;2023-02-03T01:39:44;17.50;;;9.90;;
15812;SDS011;8007;51.404;6.304;2023-02-03T01:41:46;17.93;;;8.87;;
15812;SDS011;8007;51.404;6.304;2023-02-03T01:43:49;16.40;;;8.63;;
15812;SDS011;8007;51.404;6.304;2023-02-03T01:45:51;15.10;;;8.33;;
15812;SDS011;8007;51.404;6.304;2023-02-03T01:47:54;17.83;;;9.00;;
15812;SDS011;8007;51.404;6.304;2023-02-03T01:50:00;13.03;;;8.13;;
15812;SDS011;8007;51.404;6.304;2023-02-03T01:52:05;16.77;;;8.70;;
15812;SDS011;8007;51.404;6.304;2023-02-03T01:54:10;15.67;;;9.33;;
15812;SDS011;8007;51.404;6.304;2023-02-03T01:56:13;18.17;;;9.77;;
15812;SDS011;8007;51.404;6.304;2023-02-03T01:58:17;16.63;;;9.50;;
15812;SDS011;8007;51.404;6.304;2023-02-03T02:00:21;19.90;;;7.50;;
15812;SDS011;8007;51.404;6.304;2023-02-03T02:02:23;17.20;;;9.57;;
15812;SDS011;8007;51.404;6.304;2023-02-03T02:04:27;15.87;;;6.60;;
15812;SDS011;8007;51.404;6.304;2023-02-03T02:06:32;14.83;;;7.50;;
15812;SDS011;8007;51.404;6.304;2023-02-03T02:08:34;13.20;;;7.20;;
15812;SDS011;8007;51.404;6.304;2023-02-03T02:10:37;11.40;;;7.17;;
15812;SDS011;8007;51.404;6.304;2023-02-03T02:12:39;14.73;;;7.27;;
15812;SDS011;8007;51.404;6.304;2023-02-03T02:14:41;11.60;;;6.70;;
15812;SDS011;8007;51.404;6.304;2023-02-03T02:16:45;12.73;;;6.53;;
15812;SDS011;8007;51.404;6.304;2023-02-03T02:18:53;10.20;;;5.80;;
15812;SDS011;8007;51.404;6.304;2023-02-03T02:21:09;14.47;;;5.70;;
15812;SDS011;8007;51.404;6.304;2023-02-03T02:23:24;9.43;;;4.83;;
15812;SDS011;8007;51.404;6.304;2023-02-03T02:28:07;15.57;;;6.03;;
15812;SDS011;8007;51.404;6.304;2023-02-03T02:30:19;14.00;;;5.70;;
15812;SDS011;8007;51.404;6.304;2023-02-03T02:32:29;10.43;;;5.13;;
15812;SDS011;8007;51.404;6.304;2023-02-03T02:34:38;10.10;;;5.27;;
15812;SDS011;8007;51.404;6.304;2023-02-03T02:36:50;12.97;;;6.17;;
15812;SDS011;8007;51.404;6.304;2023-02-03T02:38:56;11.13;;;5.80;;
15812;SDS011;8007;51.404;6.304;2023-02-03T02:41:03;11.80;;;5.90;;
15812;SDS011;8007;51.404;6.304;2023-02-03T02:43:08;10.77;;;5.87;;
15812;SDS011;8007;51.404;6.304;2023-02-03T02:45:13;9.93;;;5.30;;
15812;SDS011;8007;51.404;6.304;2023-02-03T02:47:17;11.77;;;5.43;;
15812;SDS011;8007;51.404;6.304;2023-02-03T02:49:22;8.57;;;5.57;;
15812;SDS011;8007;51.404;6.304;2023-02-03T02:51:26;13.63;;;5.80;;
15812;SDS011;8007;51.404;6.304;2023-02-03T02:53:31;12.67;;;6.43;;
15812;SDS011;8007;51.404;6.304;2023-02-03T02:55:34;15.10;;;5.97;;
15812;SDS011;8007;51.404;6.304;2023-02-03T02:57:39;16.63;;;6.33;;
15812;SDS011;8007;51.404;6.304;2023-02-03T02:59:42;9.53;;;5.13;;
15812;SDS011;8007;51.404;6.304;2023-02-03T03:01:44;7.60;;;5.07;;
15812;SDS011;8007;51.404;6.304;2023-02-03T03:03:52;10.37;;;5.57;;
15812;SDS011;8007;51.404;6.304;2023-02-03T03:06:01;8.27;;;5.07;;
15812;SDS011;8007;51.404;6.304;2023-02-03T03:08:04;7.53;;;5.17;;
15812;SDS011;8007;51.404;6.304;2023-02-03T03:10:08;8.03;;;5.37;;
15812;SDS011;8007;51.404;6.304;2023-02-03T03:12:13;10.87;;;5.00;;
15812;SDS011;8007;51.404;6.304;2023-02-03T03:14:16;10.47;;;5.10;;
15812;SDS011;8007;51.404;6.304;2023-02-03T03:16:20;10.87;;;5.20;;
15812;SDS011;8007;51.404;6.304;2023-02-03T03:18:24;11.87;;;4.87;;
15812;SDS011;8007;51.404;6.304;2023-02-03T03:20:29;10.67;;;5.03;;
15812;SDS011;8007;51.404;6.304;2023-02-03T03:22:36;9.47;;;5.20;;
15812;SDS011;8007;51.404;6.304;2023-02-03T03:24:40;11.90;;;5.43;;
15812;SDS011;8007;51.404;6.304;2023-02-03T03:26:43;12.87;;;4.70;;
15812;SDS011;8007;51.404;6.304;2023-02-03T03:28:49;15.10;;;4.97;;
15812;SDS011;8007;51.404;6.304;2023-02-03T03:30:52;9.10;;;5.00;;
15812;SDS011;8007;51.404;6.304;2023-02-03T03:32:55;8.07;;;4.50;;
15812;SDS011;8007;51.404;6.304;2023-02-03T03:34:58;10.33;;;5.17;;
15812;SDS011;8007;51.404;6.304;2023-02-03T03:37:02;9.47;;;4.40;;
15812;SDS011;8007;51.404;6.304;2023-02-03T03:39:11;11.13;;;4.60;;
15812;SDS011;8007;51.404;6.304;2023-02-03T03:41:16;12.60;;;5.00;;
15812;SDS011;8007;51.404;6.304;2023-02-03T03:43:22;8.27;;;4.60;;
15812;SDS011;8007;51.404;6.304;2023-02-03T03:45:26;7.80;;;4.30;;
15812;SDS011;8007;51.404;6.304;2023-02-03T03:47:32;10.37;;;5.00;;
15812;SDS011;8007;51.404;6.304;2023-02-03T03:49:36;10.27;;;4.63;;
15812;SDS011;8007;51.404;6.304;2023-02-03T03:51:43;16.53;;;5.00;;
15812;SDS011;8007;51.404;6.304;2023-02-03T03:53:47;7.77;;;4.50;;
15812;SDS011;8007;51.404;6.304;2023-02-03T03:58:18;9.40;;;4.33;;
15812;SDS011;8007;51.404;6.304;2023-02-03T04:00:22;12.33;;;4.63;;
15812;SDS011;8007;51.404;6.304;2023-02-03T04:02:26;10.00;;;4.87;;
15812;SDS011;8007;51.404;6.304;2023-02-03T04:04:29;9.87;;;4.70;;
15812;SDS011;8007;51.404;6.304;2023-02-03T04:06:32;15.73;;;4.30;;
15812;SDS011;8007;51.404;6.304;2023-02-03T04:08:36;12.57;;;4.67;;
15812;SDS011;8007;51.404;6.304;2023-02-03T04:10:39;14.10;;;4.53;;
15812;SDS011;8007;51.404;6.304;2023-02-03T04:12:41;10.93;;;4.23;;
15812;SDS011;8007;51.404;6.304;2023-02-03T04:14:44;10.63;;;4.10;;
15812;SDS011;8007;51.404;6.304;2023-02-03T04:16:47;9.57;;;4.40;;
15812;SDS011;8007;51.404;6.304;2023-02-03T04:18:49;8.17;;;4.43;;
15812;SDS011;8007;51.404;6.304;2023-02-03T04:20:51;7.03;;;4.10;;
15812;SDS011;8007;51.404;6.304;2023-02-03T04:22:54;8.97;;;4.77;;
15812;SDS011;8007;51.404;6.304;2023-02-03T04:24:56;9.93;;;4.27;;
15812;SDS011;8007;51.404;6.304;2023-02-03T04:27:00;9.70;;;4.10;;
15812;SDS011;8007;51.404;6.304;2023-02-03T04:29:03;6.67;;;3.80;;
15812;SDS011;8007;51.404;6.304;2023-02-03T04:31:06;9.07;;;3.90;;
15812;SDS011;8007;51.404;6.304;2023-02-03T04:33:09;6.83;;;3.70;;
15812;SDS011;8007;51.404;6.304;2023-02-03T04:35:13;6.20;;;3.83;;
15812;SDS011;8007;51.404;6.304;2023-02-03T04:37:15;6.70;;;3.53;;
15812;SDS011;8007;51.404;6.304;2023-02-03T04:39:18;11.30;;;3.93;;
15812;SDS011;8007;51.404;6.304;2023-02-03T04:41:20;10.70;;;3.70;;
15812;SDS011;8007;51.404;6.304;2023-02-03T04:43:22;5.67;;;3.30;;
15812;SDS011;8007;51.404;6.304;2023-02-03T04:45:25;6.33;;;3.70;;
15812;SDS011;8007;51.404;6.304;2023-02-03T04:47:28;5.50;;;3.13;;
15812;SDS011;8007;51.404;6.304;2023-02-03T04:49:30;7.07;;;3.40;;
15812;SDS011;8007;51.404;6.304;2023-02-03T04:51:32;6.90;;;3.30;;
15812;SDS011;8007;51.404;6.304;2023-02-03T04:53:35;7.63;;;3.70;;
15812;SDS011;8007;51.404;6.304;2023-02-03T04:55:37;7.40;;;3.03;;
15812;SDS011;8007;51.404;6.304;2023-02-03T04:57:39;5.97;;;2.83;;
15812;SDS011;8007;51.404;6.304;2023-02-03T04:59:42;5.50;;;3.00;;
15812;SDS011;8007;51.404;6.304;2023-02-03T05:01:44;9.27;;;3.13;;
15812;SDS011;8007;51.404;6.304;2023-02-03T05:03:48;8.33;;;2.97;;
15812;SDS011;8007;51.404;6.304;2023-02-03T05:05:50;10.47;;;3.83;;
15812;SDS011;8007;51.404;6.304;2023-02-03T05:07:52;6.00;;;3.07;;
15812;SDS011;8007;51.404;6.304;2023-02-03T05:09:55;7.30;;;3.67;;
15812;SDS011;8007;51.404;6.304;2023-02-03T05:11:57;5.83;;;3.00;;
15812;SDS011;8007;51.404;6.304;2023-02-03T05:14:01;11.13;;;3.30;;
15812;SDS011;8007;51.404;6.304;2023-02-03T05:16:03;10.20;;;2.83;;
15812;SDS011;8007;51.404;6.304;2023-02-03T05:18:05;6.37;;;2.93;;
15812;SDS011;8007;51.404;6.304;2023-02-03T05:20:10;5.90;;;2.90;;
15812;SDS011;8007;51.404;6.304;2023-02-03T05:22:12;7.40;;;3.00;;
15812;SDS011;8007;51.404;6.304;2023-02-03T05:24:15;9.27;;;3.13;;
15812;SDS011;8007;51.404;6.304;2023-02-03T05:26:17;7.63;;;2.83;;
15812;SDS011;8007;51.404;6.304;2023-02-03T05:28:19;9.10;;;3.03;;
15812;SDS011;8007;51.404;6.304;2023-02-03T05:30:22;5.70;;;2.80;;
15812;SDS011;8007;51.404;6.304;2023-02-03T05:32:24;5.97;;;3.40;;
15812;SDS011;8007;51.404;6.304;2023-02-03T05:34:26;8.60;;;3.27;;
15812;SDS011;8007;51.404;6.304;2023-02-03T05:36:30;6.67;;;3.23;;
15812;SDS011;8007;51.404;6.304;2023-02-03T05:38:32;13.73;;;3.53;;
15812;SDS011;8007;51.404;6.304;2023-02-03T05:40:34;9.53;;;3.00;;
15812;SDS011;8007;51.404;6.304;2023-02-03T05:42:56;8.37;;;3.00;;
15812;SDS011;8007;51.404;6.304;2023-02-03T05:45:00;6.90;;;2.60;;
15812;SDS011;8007;51.404;6.304;2023-02-03T05:47:02;9.20;;;2.60;;
15812;SDS011;8007;51.404;6.304;2023-02-03T05:49:04;8.17;;;2.57;;
15812;SDS011;8007;51.404;6.304;2023-02-03T05:51:07;5.73;;;2.70;;
15812;SDS011;8007;51.404;6.304;2023-02-03T05:53:11;5.13;;;2.70;;
15812;SDS011;8007;51.404;6.304;2023-02-03T05:55:13;8.47;;;3.07;;
15812;SDS011;8007;51.404;6.304;2023-02-03T05:57:15;10.87;;;2.40;;
15812;SDS011;8007;51.404;6.304;2023-02-03T05:59:18;6.27;;;2.30;;
15812;SDS011;8007;51.404;6.304;2023-02-03T06:01:21;5.03;;;2.63;;
15812;SDS011;8007;51.404;6.304;2023-02-03T06:03:23;5.07;;;2.33;;
15812;SDS011;8007;51.404;6.304;2023-02-03T06:05:25;7.37;;;2.47;;
15812;SDS011;8007;51.404;6.304;2023-02-03T06:07:27;7.80;;;2.23;;
15812;SDS011;8007;51.404;6.304;2023-02-03T06:09:31;8.33;;;2.60;;
15812;SDS011;8007;51.404;6.304;2023-02-03T06:11:34;11.37;;;3.30;;
15812;SDS011;8007;51.404;6.304;2023-02-03T06:13:37;7.20;;;2.53;;
15812;SDS011;8007;51.404;6.304;2023-02-03T06:15:39;5.00;;;1.97;;
15812;SDS011;8007;51.404;6.304;2023-02-03T06:17:44;5.50;;;2.77;;
15812;SDS011;8007;51.404;6.304;2023-02-03T06:19:47;4.83;;;2.90;;
15812;SDS011;8007;51.404;6.304;2023-02-03T06:21:50;7.90;;;2.10;;
15812;SDS011;8007;51.404;6.304;2023-02-03T06:23:52;7.80;;;2.50;;
15812;SDS011;8007;51.404;6.304;2023-02-03T06:25:57;5.60;;;2.40;;
15812;SDS011;8007;51.404;6.304;2023-02-03T06:28:00;5.77;;;2.77;;
15812;SDS011;8007;51.404;6.304;2023-02-03T06:30:02;4.33;;;2.27;;
15812;SDS011;8007;51.404;6.304;2023-02-03T06:32:05;5.20;;;2.40;;
15812;SDS011;8007;51.404;6.304;2023-02-03T06:34:07;5.47;;;2.40;;
15812;SDS011;8007;51.404;6.304;2023-02-03T06:36:09;7.33;;;1.90;;
15812;SDS011;8007;51.404;6.304;2023-02-03T06:38:12;9.73;;;2.60;;
15812;SDS011;8007;51.404;6.304;2023-02-03T06:40:14;10.70;;;2.77;;
15812;SDS011;8007;51.404;6.304;2023-02-03T06:42:18;4.13;;;2.63;;
15812;SDS011;8007;51.404;6.304;2023-02-03T06:44:20;6.97;;;3.63;;
15812;SDS011;8007;51.404;6.304;2023-02-03T06:46:22;9.43;;;2.70;;
15812;SDS011;8007;51.404;6.304;2023-02-03T06:48:28;7.50;;;3.13;;
15812;SDS011;8007;51.404;6.304;2023-02-03T06:50:30;6.80;;;3.53;;
15812;SDS011;8007;51.404;6.304;2023-02-03T06:52:33;8.27;;;2.90;;
15812;SDS011;8007;51.404;6.304;2023-02-03T06:54:35;7.93;;;3.13;;
15812;SDS011;8007;51.404;6.304;2023-02-03T06:56:37;5.57;;;2.43;;
15812;SDS011;8007;51.404;6.304;2023-02-03T06:58:49;6.70;;;2.57;;
15812;SDS011;8007;51.404;6.304;2023-02-03T07:00:54;5.87;;;1.93;;
15812;SDS011;8007;51.404;6.304;2023-02-03T07:02:56;4.67;;;2.60;;
15812;SDS011;8007;51.404;6.304;2023-02-03T07:05:01;10.07;;;2.60;;
15812;SDS011;8007;51.404;6.304;2023-02-03T07:07:03;6.90;;;2.70;;
15812;SDS011;8007;51.404;6.304;2023-02-03T07:09:05;7.23;;;2.60;;
15812;SDS011;8007;51.404;6.304;2023-02-03T07:11:08;7.00;;;2.57;;
15812;SDS011;8007;51.404;6.304;2023-02-03T07:13:10;3.03;;;1.90;;
15812;SDS011;8007;51.404;6.304;2023-02-03T07:15:14;5.57;;;2.10;;
15812;SDS011;8007;51.404;6.304;2023-02-03T07:17:16;4.43;;;2.30;;
15812;SDS011;8007;51.404;6.304;2023-02-03T07:19:19;4.83;;;2.03;;
15812;SDS011;8007;51.404;6.304;2023-02-03T07:21:21;10.13;;;3.33;;
15812;SDS011;8007;51.404;6.304;2023-02-03T07:23:25;5.77;;;2.53;;
15812;SDS011;8007;51.404;6.304;2023-02-03T07:25:29;4.37;;;1.57;;
15812;SDS011;8007;51.404;6.304;2023-02-03T07:27:31;6.73;;;2.00;;
15812;SDS011;8007;51.404;6.304;2023-02-03T07:29:34;6.57;;;2.17;;
15812;SDS011;8007;51.404;6.304;2023-02-03T07:31:37;7.97;;;2.30;;
15812;SDS011;8007;51.404;6.304;2023-02-03T07:33:40;4.40;;;2.30;;
15812;SDS011;8007;51.404;6.304;2023-02-03T07:35:42;4.20;;;2.00;;
15812;SDS011;8007;51.404;6.304;2023-02-03T07:37:45;3.37;;;2.00;;
15812;SDS011;8007;51.404;6.304;2023-02-03T07:39:48;4.17;;;2.47;;
15812;SDS011;8007;51.404;6.304;2023-02-03T07:41:50;7.70;;;2.20;;
15812;SDS011;8007;51.404;6.304;2023-02-03T07:43:53;6.80;;;1.93;;
15812;SDS011;8007;51.404;6.304;2023-02-03T07:45:55;4.37;;;2.07;;
15812;SDS011;8007;51.404;6.304;2023-02-03T07:47:59;5.53;;;2.97;;
15812;SDS011;8007;51.404;6.304;2023-02-03T07:50:01;5.27;;;2.93;;
15812;SDS011;8007;51.404;6.304;2023-02-03T07:52:03;7.93;;;3.13;;
15812;SDS011;8007;51.404;6.304;2023-02-03T07:54:06;7.13;;;3.17;;
15812;SDS011;8007;51.404;6.304;2023-02-03T07:56:08;9.03;;;2.40;;
15812;SDS011;8007;51.404;6.304;2023-02-03T07:58:11;6.00;;;2.80;;
15812;SDS011;8007;51.404;6.304;2023-02-03T08:00:14;9.23;;;2.30;;
15812;SDS011;8007;51.404;6.304;2023-02-03T08:02:17;4.53;;;2.47;;
15812;SDS011;8007;51.404;6.304;2023-02-03T08:04:21;3.70;;;2.53;;
15812;SDS011;8007;51.404;6.304;2023-02-03T08:06:24;4.20;;;2.17;;
15812;SDS011;8007;51.404;6.304;2023-02-03T08:08:26;4.50;;;2.50;;
15812;SDS011;8007;51.404;6.304;2023-02-03T08:10:28;6.03;;;3.40;;
15812;SDS011;8007;51.404;6.304;2023-02-03T08:12:31;6.30;;;3.00;;
15812;SDS011;8007;51.404;6.304;2023-02-03T08:14:33;5.93;;;2.90;;
15812;SDS011;8007;51.404;6.304;2023-02-03T08:16:36;9.13;;;3.20;;
15812;SDS011;8007;51.404;6.304;2023-02-03T08:18:38;5.97;;;3.23;;
15812;SDS011;8007;51.404;6.304;2023-02-03T08:20:42;5.43;;;3.10;;
15812;SDS011;8007;51.404;6.304;2023-02-03T08:22:44;6.90;;;3.73;;
15812;SDS011;8007;51.404;6.304;2023-02-03T08:24:47;8.10;;;4.33;;
15812;SDS011;8007;51.404;6.304;2023-02-03T08:26:49;8.80;;;4.90;;
15812;SDS011;8007;51.404;6.304;2023-02-03T08:28:52;9.70;;;4.60;;
15812;SDS011;8007;51.404;6.304;2023-02-03T08:30:54;10.10;;;5.53;;
15812;SDS011;8007;51.404;6.304;2023-02-03T08:32:56;16.73;;;6.63;;
15812;SDS011;8007;51.404;6.304;2023-02-03T08:34:59;7.53;;;4.60;;
15812;SDS011;8007;51.404;6.304;2023-02-03T08:37:03;11.50;;;6.10;;
15812;SDS011;8007;51.404;6.304;2023-02-03T08:39:05;10.13;;;4.20;;
15812;SDS011;8007;51.404;6.304;2023-02-03T08:41:08;7.83;;;4.00;;
15812;SDS011;8007;51.404;6.304;2023-02-03T08:43:11;5.87;;;3.50;;
15812;SDS011;8007;51.404;6.304;2023-02-03T08:45:13;5.70;;;3.43;;
15812;SDS011;8007;51.404;6.304;2023-02-03T08:47:15;7.83;;;3.63;;
15812;SDS011;8007;51.404;6.304;2023-02-03T08:49:18;6.10;;;2.93;;
15812;SDS011;8007;51.404;6.304;2023-02-03T08:51:22;4.17;;;3.07;;
15812;SDS011;8007;51.404;6.304;2023-02-03T08:53:26;6.00;;;3.00;;
15812;SDS011;8007;51.404;6.304;2023-02-03T08:55:28;5.27;;;3.37;;
15812;SDS011;8007;51.404;6.304;2023-02-03T08:57:31;5.17;;;3.50;;
15812;SDS011;8007;51.404;6.304;2023-02-03T08:59:35;5.37;;;3.57;;
15812;SDS011;8007;51.404;6.304;2023-02-03T09:01:39;6.43;;;3.93;;
15812;SDS011;8007;51.404;6.304;2023-02-03T09:03:44;5.57;;;3.20;;
15812;SDS011;8007;51.404;6.304;2023-02-03T09:05:48;6.83;;;3.70;;
15812;SDS011;8007;51.404;6.304;2023-02-03T09:07:51;7.83;;;3.83;;
15812;SDS011;8007;51.404;6.304;2023-02-03T09:09:54;7.23;;;3.70;;
15812;SDS011;8007;51.404;6.304;2023-02-03T09:11:56;11.80;;;5.87;;
15812;SDS011;8007;51.404;6.304;2023-02-03T09:14:02;13.50;;;5.50;;
15812;SDS011;8007;51.404;6.304;2023-02-03T09:16:05;15.23;;;5.20;;
15812;SDS011;8007;51.404;6.304;2023-02-03T09:18:09;6.47;;;3.67;;
15812;SDS011;8007;51.404;6.304;2023-02-03T09:20:12;6.87;;;2.83;;
15812;SDS011;8007;51.404;6.304;2023-02-03T09:22:14;5.83;;;2.90;;
15812;SDS011;8007;51.404;6.304;2023-02-03T09:24:16;5.87;;;2.37;;
15812;SDS011;8007;51.404;6.304;2023-02-03T09:26:24;7.23;;;2.70;;
15812;SDS011;8007;51.404;6.304;2023-02-03T09:28:26;6.53;;;3.03;;
15812;SDS011;8007;51.404;6.304;2023-02-03T09:30:29;5.40;;;3.23;;
15812;SDS011;8007;51.404;6.304;2023-02-03T09:32:31;3.57;;;2.80;;
15812;SDS011;8007;51.404;6.304;2023-02-03T09:34:34;7.40;;;2.87;;
15812;SDS011;8007;51.404;6.304;2023-02-03T09:36:36;4.70;;;2.60;;
15812;SDS011;8007;51.404;6.304;2023-02-03T09:38:38;5.73;;;2.67;;
15812;SDS011;8007;51.404;6.304;2023-02-03T09:40:41;5.53;;;2.67;;
15812;SDS011;8007;51.404;6.304;2023-02-03T09:45:09;4.00;;;2.90;;
15812;SDS011;8007;51.404;6.304;2023-02-03T09:47:14;6.40;;;2.90;;
15812;SDS011;8007;51.404;6.304;2023-02-03T09:49:20;7.10;;;3.20;;
15812;SDS011;8007;51.404;6.304;2023-02-03T09:51:24;2.77;;;2.50;;
15812;SDS011;8007;51.404;6.304;2023-02-03T09:53:28;5.53;;;3.10;;
15812;SDS011;8007;51.404;6.304;2023-02-03T09:55:32;5.70;;;2.83;;
15812;SDS011;8007;51.404;6.304;2023-02-03T09:57:39;5.97;;;2.70;;
15812;SDS011;8007;51.404;6.304;2023-02-03T09:59:42;5.70;;;2.73;;
15812;SDS011;8007;51.404;6.304;2023-02-03T10:01:48;4.23;;;2.90;;
15812;SDS011;8007;51.404;6.304;2023-02-03T10:03:54;4.23;;;2.83;;
15812;SDS011;8007;51.404;6.304;2023-02-03T10:06:03;5.60;;;2.80;;
15812;SDS011;8007;51.404;6.304;2023-02-03T10:08:11;6.07;;;2.97;;
15812;SDS011;8007;51.404;6.304;2023-02-03T10:10:19;14.90;;;4.40;;
15812;SDS011;8007;51.404;6.304;2023-02-03T10:14:49;6.67;;;2.63;;
15812;SDS011;8007;51.404;6.304;2023-02-03T10:16:59;5.10;;;2.70;;
15812;SDS011;8007;51.404;6.304;2023-02-03T10:19:08;9.40;;;2.73;;
15812;SDS011;8007;51.404;6.304;2023-02-03T10:21:13;8.40;;;3.13;;
15812;SDS011;8007;51.404;6.304;2023-02-03T10:23:19;4.97;;;2.87;;
15812;SDS011;8007;51.404;6.304;2023-02-03T10:25:24;6.57;;;2.67;;
15812;SDS011;8007;51.404;6.304;2023-02-03T10:27:31;8.83;;;2.60;;
15812;SDS011;8007;51.404;6.304;2023-02-03T10:29:36;5.70;;;2.80;;
15812;SDS011;8007;51.404;6.304;2023-02-03T10:31:40;5.00;;;2.37;;
15812;SDS011;8007;51.404;6.304;2023-02-03T10:33:50;8.50;;;3.20;;
15812;SDS011;8007;51.404;6.304;2023-02-03T10:35:59;4.77;;;2.70;;
15812;SDS011;8007;51.404;6.304;2023-02-03T10:38:04;7.13;;;2.77;;
15812;SDS011;8007;51.404;6.304;2023-02-03T10:40:10;6.23;;;2.80;;
15812;SDS011;8007;51.404;6.304;2023-02-03T10:42:12;5.90;;;2.67;;
15812;SDS011;8007;51.404;6.304;2023-02-03T10:44:15;6.07;;;2.80;;
15812;SDS011;8007;51.404;6.304;2023-02-03T10:46:17;6.63;;;2.50;;
15812;SDS011;8007;51.404;6.304;2023-02-03T10:48:20;6.83;;;2.37;;
15812;SDS011;8007;51.404;6.304;2023-02-03T10:50:26;5.83;;;2.50;;
15812;SDS011;8007;51.404;6.304;2023-02-03T10:52:32;7.93;;;2.63;;
15812;SDS011;8007;51.404;6.304;2023-02-03T10:54:35;4.40;;;2.70;;
15812;SDS011;8007;51.404;6.304;2023-02-03T10:56:37;5.53;;;2.30;;
15812;SDS011;8007;51.404;6.304;2023-02-03T10:58:45;5.60;;;2.90;;
15812;SDS011;8007;51.404;6.304;2023-02-03T11:00:49;4.87;;;2.50;;
15812;SDS011;8007;51.404;6.304;2023-02-03T11:03:04;9.27;;;2.73;;
15812;SDS011;8007;51.404;6.304;2023-02-03T11:05:07;6.10;;;2.70;;
15812;SDS011;8007;51.404;6.304;2023-02-03T11:07:22;6.30;;;2.73;;
15812;SDS011;8007;51.404;6.304;2023-02-03T11:09:28;7.00;;;3.03;;
15812;SDS011;8007;51.404;6.304;2023-02-03T11:11:32;5.00;;;2.47;;
15812;SDS011;8007;51.404;6.304;2023-02-03T11:13:36;6.47;;;2.47;;
15812;SDS011;8007;51.404;6.304;2023-02-03T11:15:42;5.97;;;2.50;;
15812;SDS011;8007;51.404;6.304;2023-02-03T11:17:45;5.77;;;2.53;;
15812;SDS011;8007;51.404;6.304;2023-02-03T11:19:48;7.10;;;2.60;;
15812;SDS011;8007;51.404;6.304;2023-02-03T11:21:51;6.13;;;2.80;;
15812;SDS011;8007;51.404;6.304;2023-02-03T11:23:59;6.60;;;2.67;;
15812;SDS011;8007;51.404;6.304;2023-02-03T11:26:12;4.90;;;2.50;;
15812;SDS011;8007;51.404;6.304;2023-02-03T11:28:16;5.33;;;2.60;;
15812;SDS011;8007;51.404;6.304;2023-02-03T11:30:25;8.07;;;2.93;;
15812;SDS011;8007;51.404;6.304;2023-02-03T11:32:31;5.77;;;2.50;;
15812;SDS011;8007;51.404;6.304;2023-02-03T11:34:35;7.70;;;2.70;;
15812;SDS011;8007;51.404;6.304;2023-02-03T11:36:38;5.93;;;2.70;;
15812;SDS011;8007;51.404;6.304;2023-02-03T11:38:41;5.97;;;2.77;;
15812;SDS011;8007;51.404;6.304;2023-02-03T11:40:45;7.77;;;2.97;;
15812;SDS011;8007;51.404;6.304;2023-02-03T11:42:58;7.43;;;3.13;;
15812;SDS011;8007;51.404;6.304;2023-02-03T11:45:11;6.63;;;2.80;;
15812;SDS011;8007;51.404;6.304;2023-02-03T11:47:14;8.17;;;3.10;;
15812;SDS011;8007;51.404;6.304;2023-02-03T11:49:37;6.20;;;3.07;;
15812;SDS011;8007;51.404;6.304;2023-02-03T11:51:46;9.00;;;3.63;;
15812;SDS011;8007;51.404;6.304;2023-02-03T11:53:57;8.23;;;3.77;;
15812;SDS011;8007;51.404;6.304;2023-02-03T11:56:22;7.40;;;3.50;;
15812;SDS011;8007;51.404;6.304;2023-02-03T12:00:45;12.03;;;3.33;;
15812;SDS011;8007;51.404;6.304;2023-02-03T12:02:56;5.27;;;3.50;;
15812;SDS011;8007;51.404;6.304;2023-02-03T12:05:18;7.63;;;3.80;;
15812;SDS011;8007;51.404;6.304;2023-02-03T12:07:31;10.47;;;3.57;;
15812;SDS011;8007;51.404;6.304;2023-02-03T12:09:41;7.00;;;3.40;;
15812;SDS011;8007;51.404;6.304;2023-02-03T12:11:52;9.17;;;3.27;;
15812;SDS011;8007;51.404;6.304;2023-02-03T12:14:01;10.73;;;3.80;;
15812;SDS011;8007;51.404;6.304;2023-02-03T12:16:08;8.67;;;3.80;;
15812;SDS011;8007;51.404;6.304;2023-02-03T12:18:19;11.57;;;4.27;;
15812;SDS011;8007;51.404;6.304;2023-02-03T12:20:31;8.97;;;3.53;;
15812;SDS011;8007;51.404;6.304;2023-02-03T12:22:41;5.67;;;3.37;;
15812;SDS011;8007;51.404;6.304;2023-02-03T12:24:48;11.03;;;3.93;;
15812;SDS011;8007;51.404;6.304;2023-02-03T12:26:58;9.77;;;4.30;;
15812;SDS011;8007;51.404;6.304;2023-02-03T12:29:03;9.60;;;4.20;;
15812;SDS011;8007;51.404;6.304;2023-02-03T12:31:08;8.73;;;4.17;;
15812;SDS011;8007;51.404;6.304;2023-02-03T12:33:14;9.33;;;3.93;;
15812;SDS011;8007;51.404;6.304;2023-02-03T12:35:19;9.70;;;4.33;;
15812;SDS011;8007;51.404;6.304;2023-02-03T12:37:24;11.37;;;4.80;;
15812;SDS011;8007;51.404;6.304;2023-02-03T12:39:28;8.97;;;3.90;;
15812;SDS011;8007;51.404;6.304;2023-02-03T12:41:33;8.03;;;4.20;;
15812;SDS011;8007;51.404;6.304;2023-02-03T12:43:38;7.67;;;4.77;;
15812;SDS011;8007;51.404;6.304;2023-02-03T12:45:41;7.70;;;4.77;;
15812;SDS011;8007;51.404;6.304;2023-02-03T12:47:49;11.70;;;4.60;;